Time;durP1;ratioP1;P1;durP2;ratioP2;P2;SDS_P1;SDS_P2;PMS_P1;PMS_P2;Temp;Humidity;BMP_temperature;BMP_pressure;BME280_temperature;BME280_humidity;BME280_pressure;Samples;Min_cycle;Max_cycle;Signal;HPM_P1;HPM_P2
2023/06/23 00:01:39;;;;;;;19.70;18.20;;;18.70;99.90;;;;;;5288767;28;20108;-69
2023/06/23 00:04:10;;;;;;;17.60;16.20;;;18.80;99.90;;;;;;5288649;28;20493;-69
2023/06/23 00:06:40;;;;;;;18.05;16.58;;;18.70;99.90;;;;;;5288689;28;20064;-69
2023/06/23 00:09:14;;;;;;;18.67;17.08;;;18.50;99.90;;;;;;5288420;28;20114;-69
2023/06/23 00:11:45;;;;;;;16.63;15.27;;;18.60;99.90;;;;;;5288499;28;20371;-69
2023/06/23 00:14:18;;;;;;;15.57;14.38;;;18.80;99.90;;;;;;5288363;28;20047;-69
2023/06/23 00:16:50;;;;;;;15.15;13.85;;;18.70;99.90;;;;;;5288419;28;20023;-69
2023/06/23 00:19:21;;;;;;;16.80;15.35;;;18.50;99.90;;;;;;5288439;28;20040;-69
2023/06/23 00:21:52;;;;;;;19.58;18.05;;;18.40;99.90;;;;;;5288619;28;20416;-69
2023/06/23 00:24:22;;;;;;;19.85;18.27;;;18.30;99.90;;;;;;5288498;28;20074;-69
2023/06/23 00:26:53;;;;;;;19.90;18.30;;;18.30;99.90;;;;;;5288521;28;20405;-69
2023/06/23 00:29:24;;;;;;;17.13;15.73;;;18.10;99.90;;;;;;5288274;28;20032;-69
2023/06/23 00:31:55;;;;;;;16.27;14.77;;;18.30;99.90;;;;;;5288534;28;20550;-69
2023/06/23 00:34:26;;;;;;;16.70;15.38;;;18.30;99.90;;;;;;5288242;28;20047;-68
2023/06/23 00:36:57;;;;;;;19.98;18.23;;;18.30;99.90;;;;;;5288346;28;20073;-69
2023/06/23 00:39:28;;;;;;;16.67;15.40;;;18.30;99.90;;;;;;5288339;28;20378;-69
2023/06/23 00:42:02;;;;;;;19.83;17.98;;;18.40;99.90;;;;;;5288346;28;20031;-69
2023/06/23 00:44:34;;;;;;;18.23;16.73;;;18.50;99.90;;;;;;5288168;28;20405;-69
2023/06/23 00:47:06;;;;;;;21.30;19.42;;;18.40;99.90;;;;;;5288232;28;20028;-69
2023/06/23 00:49:37;;;;;;;18.20;16.70;;;18.50;99.90;;;;;;5288185;28;20023;-69
2023/06/23 00:52:09;;;;;;;20.05;18.40;;;18.30;99.90;;;;;;5288170;28;20501;-69
2023/06/23 00:54:40;;;;;;;20.80;19.13;;;18.30;99.90;;;;;;5288003;28;20043;-69
2023/06/23 00:57:11;;;;;;;20.65;19.17;;;18.40;99.90;;;;;;5288083;28;20027;-69
2023/06/23 00:59:42;;;;;;;20.73;18.58;;;18.30;99.90;;;;;;5288107;28;20096;-69
2023/06/23 01:02:13;;;;;;;20.90;19.10;;;18.40;99.90;;;;;;5288191;28;20024;-69
2023/06/23 01:04:47;;;;;;;19.98;18.38;;;18.40;99.90;;;;;;5287941;28;20028;-69
2023/06/23 01:07:29;;;;;;;20.15;18.45;;;18.20;99.90;;;;;;5287911;28;20024;-69
2023/06/23 01:10:14;;;;;;;20.15;18.45;;;18.40;99.90;;;;;;5288009;28;20030;-69
2023/06/23 01:12:50;;;;;;;19.02;17.73;;;18.50;99.90;;;;;;5287929;28;20061;-69
2023/06/23 01:15:32;;;;;;;20.35;18.42;;;18.40;99.90;;;;;;5287869;28;20039;-69
2023/06/23 01:18:16;;;;;;;20.77;19.08;;;18.40;99.90;;;;;;5287929;28;20024;-69
2023/06/23 01:20:49;;;;;;;20.45;18.77;;;18.30;99.90;;;;;;5290888;28;20020;-69
2023/06/23 01:23:47;;;;;;;21.42;19.65;;;18.10;99.90;;;;;;5291830;28;20036;-69
2023/06/23 01:26:40;;;;;;;19.50;18.08;;;18.10;99.90;;;;;;5291931;28;20023;-69
2023/06/23 01:29:17;;;;;;;21.02;19.30;;;18.20;99.90;;;;;;5291743;28;20031;-69
2023/06/23 01:32:08;;;;;;;21.65;20.15;;;18.10;99.90;;;;;;5291732;28;20016;-69
2023/06/23 01:34:43;;;;;;;19.83;18.33;;;18.10;99.90;;;;;;5291530;28;20063;-69
2023/06/23 01:37:22;;;;;;;18.48;16.95;;;18.10;99.90;;;;;;5291910;28;20073;-69
2023/06/23 01:40:10;;;;;;;19.77;17.70;;;18.20;99.90;;;;;;5291651;28;20027;-69
2023/06/23 01:42:46;;;;;;;18.98;17.55;;;18.10;99.90;;;;;;5291363;28;20028;-69
2023/06/23 01:45:19;;;;;;;21.05;19.38;;;18.10;99.90;;;;;;5291621;28;20035;-69
2023/06/23 01:47:51;;;;;;;18.65;17.17;;;18.30;99.90;;;;;;5291400;28;20532;-69
2023/06/23 01:50:23;;;;;;;19.02;17.52;;;18.10;99.90;;;;;;5291598;28;20169;-69
2023/06/23 01:52:56;;;;;;;18.13;16.80;;;17.90;99.90;;;;;;5291366;28;20668;-69
2023/06/23 01:55:28;;;;;;;17.17;15.82;;;18.00;99.90;;;;;;5291544;28;20479;-69
2023/06/23 01:58:01;;;;;;;19.17;17.38;;;18.00;99.90;;;;;;5291549;28;20088;-69
2023/06/23 02:00:32;;;;;;;18.67;17.05;;;17.90;99.90;;;;;;5291521;28;20426;-69
2023/06/23 02:03:05;;;;;;;17.85;16.35;;;17.90;99.90;;;;;;5291302;28;20023;-69
2023/06/23 02:05:37;;;;;;;19.33;17.83;;;18.00;99.90;;;;;;5291189;28;20046;-69
2023/06/23 02:08:09;;;;;;;19.33;17.70;;;18.00;99.90;;;;;;5290937;28;20019;-69
2023/06/23 02:10:40;;;;;;;20.10;18.42;;;18.20;99.90;;;;;;5291065;28;20088;-69
2023/06/23 02:13:13;;;;;;;20.98;19.27;;;18.20;99.90;;;;;;5290825;28;20112;-69
2023/06/23 02:15:45;;;;;;;20.75;19.15;;;18.10;99.90;;;;;;5290866;28;20034;-69
2023/06/23 02:18:18;;;;;;;20.27;18.55;;;18.10;99.90;;;;;;5290836;28;20034;-69
2023/06/23 02:20:51;;;;;;;20.67;18.85;;;18.00;99.90;;;;;;5290785;28;20032;-69
2023/06/23 02:23:24;;;;;;;18.02;16.42;;;18.10;99.90;;;;;;5290729;28;20033;-69
2023/06/23 02:25:55;;;;;;;17.58;16.05;;;17.90;99.90;;;;;;5290575;28;20072;-69
2023/06/23 02:28:27;;;;;;;18.90;17.17;;;17.90;99.90;;;;;;5290579;28;20020;-69
2023/06/23 02:31:00;;;;;;;18.20;16.40;;;17.90;99.90;;;;;;5290919;28;20035;-69
2023/06/23 02:33:31;;;;;;;18.33;16.80;;;17.90;99.90;;;;;;5290375;28;20114;-71
2023/06/23 02:36:05;;;;;;;20.75;18.98;;;17.90;99.90;;;;;;5290380;28;20108;-71
2023/06/23 02:38:37;;;;;;;18.58;17.00;;;18.00;99.90;;;;;;5290339;28;20036;-72
2023/06/23 02:41:10;;;;;;;16.80;15.20;;;18.00;99.90;;;;;;5290328;28;20039;-72
2023/06/23 02:43:50;;;;;;;16.83;15.13;;;18.00;99.90;;;;;;5290043;28;20438;-72
2023/06/23 02:46:27;;;;;;;;;;;18.00;99.90;;;;;;5290957;28;20063;-72
2023/06/23 02:49:10;;;;;;;17.95;16.05;;;18.10;99.90;;;;;;5290289;28;19903;-71
2023/06/23 02:51:43;;;;;;;17.85;16.20;;;18.10;99.90;;;;;;5290131;28;20084;-71
2023/06/23 03:06:22;;;;;;;15.07;13.77;;;18.10;99.90;;;;;;5285976;27;20784;-70
2023/06/23 03:08:53;;;;;;;16.75;15.07;;;17.80;99.90;;;;;;5285948;28;20055;-69
2023/06/23 03:11:24;;;;;;;18.58;16.98;;;17.80;99.90;;;;;;5285628;28;20032;-69
2023/06/23 03:13:55;;;;;;;18.30;16.70;;;17.70;99.90;;;;;;5285436;28;20367;-69
2023/06/23 03:16:39;;;;;;;20.02;18.52;;;17.90;99.90;;;;;;5285431;28;20032;-69
2023/06/23 03:19:13;;;;;;;18.77;17.27;;;17.90;99.90;;;;;;5285408;28;20020;-69
2023/06/23 03:22:01;;;;;;;19.30;17.77;;;17.80;99.90;;;;;;5285470;28;20036;-70
2023/06/23 03:24:36;;;;;;;19.95;18.45;;;17.90;99.90;;;;;;5284190;28;20081;-70
2023/06/23 03:27:09;;;;;;;20.02;18.52;;;17.90;99.90;;;;;;5285199;28;20020;-70
2023/06/23 03:29:46;;;;;;;18.55;16.90;;;18.00;99.90;;;;;;5285144;28;20024;-70
2023/06/23 03:32:25;;;;;;;17.20;15.60;;;17.90;99.90;;;;;;5285177;28;20008;-70
2023/06/23 03:35:03;;;;;;;18.40;16.88;;;18.10;99.90;;;;;;5285045;28;20044;-69
2023/06/23 03:37:39;;;;;;;19.02;17.55;;;18.10;99.90;;;;;;5284890;28;20028;-69
2023/06/23 03:40:14;;;;;;;19.40;17.73;;;18.20;99.90;;;;;;5284933;28;20038;-70
2023/06/23 03:42:49;;;;;;;18.63;17.30;;;18.20;99.90;;;;;;5285099;28;20120;-69
2023/06/23 03:45:23;;;;;;;18.98;17.40;;;18.50;99.90;;;;;;5284972;28;20059;-70
2023/06/23 03:48:01;;;;;;;20.33;18.63;;;18.40;99.90;;;;;;5284851;28;20478;-69
2023/06/23 03:50:35;;;;;;;20.20;18.60;;;18.30;99.90;;;;;;5284900;28;20020;-70
2023/06/23 03:53:07;;;;;;;20.45;18.88;;;18.40;99.90;;;;;;5285186;28;20031;-70
2023/06/23 03:55:39;;;;;;;22.70;20.63;;;18.40;99.90;;;;;;5284671;28;20031;-69
2023/06/23 03:58:11;;;;;;;21.25;19.60;;;18.60;99.90;;;;;;5283375;28;20532;-69
2023/06/23 04:00:43;;;;;;;20.58;18.80;;;18.50;99.90;;;;;;5284606;28;20055;-69
2023/06/23 04:03:15;;;;;;;21.85;20.15;;;18.50;99.90;;;;;;5284348;28;20367;-70
2023/06/23 04:05:48;;;;;;;22.48;20.38;;;18.40;99.90;;;;;;5278217;28;20441;-70
2023/06/23 04:08:20;;;;;;;23.60;21.90;;;18.60;99.90;;;;;;5270495;28;20036;-69
2023/06/23 04:10:54;;;;;;;19.88;18.23;;;18.90;99.90;;;;;;5270504;28;20160;-69
2023/06/23 04:13:27;;;;;;;20.90;19.20;;;18.90;99.90;;;;;;5270243;28;20036;-70
2023/06/23 04:16:00;;;;;;;21.48;19.77;;;19.10;99.90;;;;;;5270198;28;20028;-69
2023/06/23 04:30:06;;;;;;;22.73;21.10;;;19.30;99.90;;;;;;5306982;27;20431;-71
2023/06/23 04:32:38;;;;;;;18.70;17.20;;;19.40;99.90;;;;;;5306906;27;20023;-71
2023/06/23 04:35:10;;;;;;;17.88;16.50;;;19.40;99.90;;;;;;5306833;27;20066;-72
2023/06/23 04:37:51;;;;;;;18.92;17.33;;;19.50;99.90;;;;;;5306881;27;20031;-72
2023/06/23 04:40:25;;;;;;;19.35;17.90;;;19.60;99.90;;;;;;5306715;28;20550;-72
2023/06/23 04:43:02;;;;;;;21.52;19.85;;;19.70;99.90;;;;;;5306656;27;20518;-72
2023/06/23 04:45:37;;;;;;;20.15;18.55;;;19.80;99.90;;;;;;5306521;28;20027;-71
2023/06/23 04:48:11;;;;;;;18.40;16.77;;;19.90;99.90;;;;;;5306519;27;20016;-72
2023/06/23 04:50:45;;;;;;;18.95;16.73;;;20.00;99.90;;;;;;5306407;28;20363;-71
2023/06/23 05:08:56;;;;;;;23.08;20.88;;;20.20;99.90;;;;;;5350167;27;20125;-71
2023/06/23 05:11:27;;;;;;;25.65;23.02;;;21.10;99.90;;;;;;5331371;27;20384;-71
2023/06/23 05:14:01;;;;;;;26.08;23.67;;;21.30;99.90;;;;;;5349955;27;20033;-71
2023/06/23 05:16:33;;;;;;;28.45;25.85;;;21.40;99.90;;;;;;5349964;27;20026;-71
2023/06/23 05:19:08;;;;;;;27.85;25.27;;;21.70;99.90;;;;;;5349696;27;20037;-71
2023/06/23 05:21:43;;;;;;;28.67;26.08;;;21.80;99.90;;;;;;5350111;27;20018;-71
2023/06/23 05:24:16;;;;;;;24.83;22.67;;;21.90;99.90;;;;;;5349946;27;20113;-71
2023/06/23 05:26:48;;;;;;;23.88;21.75;;;21.90;99.90;;;;;;5349451;27;20026;-71
2023/06/23 05:29:22;;;;;;;25.50;23.20;;;22.00;99.90;;;;;;5349396;27;20142;-71
2023/06/23 05:31:54;;;;;;;24.60;22.50;;;22.10;99.90;;;;;;5349308;27;20417;-71
2023/06/23 05:34:27;;;;;;;24.80;22.52;;;22.20;99.90;;;;;;5349390;27;20037;-71
2023/06/23 05:37:01;;;;;;;25.00;22.58;;;22.30;99.90;;;;;;5349042;27;20373;-71
2023/06/23 05:39:35;;;;;;;22.85;20.58;;;22.50;99.90;;;;;;5349128;27;20113;-71
2023/06/23 05:42:06;;;;;;;23.45;21.35;;;22.40;99.90;;;;;;5349195;27;20067;-71
2023/06/23 05:44:37;;;;;;;21.98;19.98;;;22.50;99.90;;;;;;5349052;27;20026;-71
2023/06/23 05:47:14;;;;;;;22.48;20.30;;;22.60;99.90;;;;;;5349042;27;20034;-71
2023/06/23 05:49:46;;;;;;;19.55;17.58;;;22.60;99.90;;;;;;5349075;27;20419;-71
2023/06/23 05:52:19;;;;;;;21.10;18.92;;;22.70;99.90;;;;;;5348984;27;20036;-71
2023/06/23 05:54:54;;;;;;;20.10;18.30;;;22.80;99.90;;;;;;5348961;27;20035;-71
2023/06/23 05:57:28;;;;;;;19.60;17.80;;;22.80;99.90;;;;;;5348739;27;20030;-71
2023/06/23 06:00:16;;;;;;;19.45;17.63;;;22.90;99.90;;;;;;5348618;27;20031;-70
2023/06/23 06:02:49;;;;;;;18.83;17.27;;;23.00;99.90;;;;;;5348736;27;20107;-71
2023/06/23 06:05:23;;;;;;;19.00;17.20;;;23.30;99.90;;;;;;5348688;27;20028;-71
2023/06/23 06:07:57;;;;;;;19.63;17.98;;;23.40;99.90;;;;;;5345155;27;20080;-71
2023/06/23 06:10:29;;;;;;;19.65;17.75;;;23.40;99.90;;;;;;5334155;27;20365;-71
2023/06/23 06:13:01;;;;;;;18.70;17.10;;;23.40;99.90;;;;;;5334171;27;20037;-71
2023/06/23 06:15:34;;;;;;;20.83;18.88;;;23.60;99.90;;;;;;5334118;27;20015;-71
2023/06/23 06:18:07;;;;;;;18.55;16.73;;;23.60;99.90;;;;;;5334013;27;20038;-72
2023/06/23 06:20:40;;;;;;;16.58;15.10;;;24.00;99.90;;;;;;5333929;27;20493;-71
2023/06/23 06:23:14;;;;;;;15.80;14.50;;;24.20;99.90;;;;;;5333936;27;20030;-71
2023/06/23 06:25:49;;;;;;;16.10;14.43;;;24.30;99.90;;;;;;5333891;27;20091;-71
2023/06/23 06:28:21;;;;;;;16.73;15.45;;;24.30;99.90;;;;;;5333678;27;20047;-70
2023/06/23 06:30:54;;;;;;;17.48;15.40;;;24.30;99.90;;;;;;5333987;27;20034;-71
2023/06/23 06:33:27;;;;;;;17.58;15.98;;;24.20;99.90;;;;;;5333855;27;20055;-71
2023/06/23 06:36:03;;;;;;;16.25;14.82;;;24.40;99.90;;;;;;5333568;27;20023;-71
2023/06/23 06:38:37;;;;;;;20.10;14.63;;;24.50;99.90;;;;;;5333567;27;20477;-71
2023/06/23 06:41:09;;;;;;;15.65;13.50;;;24.30;99.90;;;;;;5333691;27;20015;-71
2023/06/23 06:43:39;;;;;;;13.30;12.20;;;24.30;99.90;;;;;;5333555;27;20446;-71
2023/06/23 06:46:12;;;;;;;13.65;12.18;;;24.60;99.90;;;;;;5333440;27;20103;-71
2023/06/23 06:48:47;;;;;;;13.25;12.05;;;24.60;99.90;;;;;;5333537;27;20038;-71
2023/06/23 06:51:18;;;;;;;16.58;11.63;;;24.70;99.90;;;;;;5333369;27;20015;-71
2023/06/23 06:53:50;;;;;;;12.40;10.95;;;24.90;99.90;;;;;;5333336;27;20042;-71
2023/06/23 06:56:21;;;;;;;13.20;11.77;;;24.90;99.90;;;;;;5333283;27;20035;-71
2023/06/23 06:58:53;;;;;;;13.40;11.35;;;24.80;99.90;;;;;;5333121;27;20090;-72
2023/06/23 07:01:24;;;;;;;12.23;10.93;;;25.00;99.90;;;;;;5333129;27;20037;-71
2023/06/23 07:03:56;;;;;;;12.43;10.57;;;25.10;99.90;;;;;;5333038;27;20031;-71
2023/06/23 07:06:27;;;;;;;12.50;11.45;;;25.20;99.90;;;;;;5332642;27;20027;-71
2023/06/23 07:08:58;;;;;;;12.90;11.77;;;25.20;99.90;;;;;;5333122;27;20373;-71
2023/06/23 07:11:31;;;;;;;13.65;12.32;;;25.30;99.90;;;;;;5332942;27;20102;-71
2023/06/23 07:14:03;;;;;;;13.52;12.25;;;25.40;99.90;;;;;;5333026;27;20050;-72
2023/06/23 07:16:34;;;;;;;14.73;13.45;;;25.30;99.90;;;;;;5332596;27;20565;-71
2023/06/23 07:19:05;;;;;;;14.38;13.18;;;25.50;99.90;;;;;;5332769;27;20022;-71
2023/06/23 07:21:35;;;;;;;15.25;13.50;;;25.60;99.90;;;;;;5331698;27;20011;-71
2023/06/23 07:24:08;;;;;;;14.68;13.25;;;25.70;99.90;;;;;;5332719;27;20026;-71
2023/06/23 07:26:40;;;;;;;13.23;12.02;;;25.70;99.90;;;;;;5332714;27;20414;-71
2023/06/23 07:29:11;;;;;;;12.45;11.27;;;25.70;99.90;;;;;;5332511;27;20030;-71
2023/06/23 07:31:42;;;;;;;16.00;10.95;;;25.70;99.90;;;;;;5332567;27;20010;-71
2023/06/23 07:34:12;;;;;;;12.38;11.10;;;25.80;99.90;;;;;;5332647;27;20051;-71
2023/06/23 07:36:43;;;;;;;12.10;10.35;;;25.80;99.90;;;;;;5332368;27;20401;-71
2023/06/23 07:39:14;;;;;;;11.60;10.50;;;25.90;99.90;;;;;;5332532;27;20041;-71
2023/06/23 07:41:45;;;;;;;13.13;10.88;;;26.10;99.90;;;;;;5332752;27;20015;-71
2023/06/23 07:44:16;;;;;;;13.75;11.82;;;26.00;99.90;;;;;;5332398;27;20030;-71
2023/06/23 07:46:46;;;;;;;14.93;12.00;;;26.00;99.90;;;;;;5313880;27;20102;-71
2023/06/23 07:49:17;;;;;;;12.82;11.57;;;26.30;99.90;;;;;;5332324;27;20072;-71
2023/06/23 07:51:48;;;;;;;15.63;14.13;;;26.30;99.90;;;;;;5332594;27;20606;-71
2023/06/23 07:54:19;;;;;;;15.35;14.05;;;26.20;99.90;;;;;;5332190;27;20407;-71
2023/06/23 07:56:50;;;;;;;14.15;12.77;;;26.30;99.90;;;;;;5331965;27;20036;-71
2023/06/23 07:59:21;;;;;;;13.98;11.27;;;26.40;99.90;;;;;;5313224;27;20033;-71
2023/06/23 08:01:52;;;;;;;12.10;10.95;;;26.40;99.90;;;;;;5332033;27;20023;-71
2023/06/23 08:04:23;;;;;;;12.45;9.98;;;26.40;99.90;;;;;;5332182;27;20082;-71
2023/06/23 08:06:54;;;;;;;12.50;11.38;;;26.40;99.90;;;;;;5331598;27;20050;-71
2023/06/23 08:09:25;;;;;;;12.68;11.35;;;26.50;99.90;;;;;;5313363;27;20401;-71
2023/06/23 08:11:56;;;;;;;12.63;11.40;;;26.50;99.90;;;;;;5331787;27;20033;-71
2023/06/23 08:14:27;;;;;;;12.50;11.23;;;26.50;99.90;;;;;;5331717;27;20011;-71
2023/06/23 08:16:57;;;;;;;12.45;11.30;;;26.60;99.90;;;;;;5331573;27;20388;-71
2023/06/23 08:19:30;;;;;;;12.80;11.35;;;26.80;99.90;;;;;;5331555;27;20448;-71
2023/06/23 08:22:00;;;;;;;13.00;11.63;;;26.80;99.90;;;;;;5331668;27;20388;-72
2023/06/23 08:24:31;;;;;;;12.57;11.50;;;26.80;99.90;;;;;;5331675;27;20030;-71
2023/06/23 08:27:02;;;;;;;13.25;11.90;;;26.90;99.90;;;;;;5331493;27;20098;-71
2023/06/23 08:29:33;;;;;;;13.07;11.82;;;26.90;99.90;;;;;;5331866;27;20026;-71
2023/06/23 08:32:05;;;;;;;12.40;11.20;;;27.10;99.90;;;;;;5331780;27;20022;-71
2023/06/23 08:34:37;;;;;;;12.52;11.23;;;27.00;99.90;;;;;;5331826;27;20105;-71
2023/06/23 08:37:07;;;;;;;12.88;11.57;;;27.10;99.90;;;;;;5312877;27;20039;-71
2023/06/23 08:39:38;;;;;;;12.88;10.75;;;27.10;99.90;;;;;;5331200;27;20033;-71
2023/06/23 08:42:09;;;;;;;10.40;9.38;;;27.30;99.90;;;;;;5331352;27;20030;-71
2023/06/23 08:44:45;;;;;;;11.35;9.02;;;26.80;99.90;;;;;;5331297;27;20369;-71
2023/06/23 08:47:19;;;;;;;9.18;8.27;;;27.10;99.90;;;;;;5331235;27;20027;-71
2023/06/23 08:49:50;;;;;;;15.00;9.43;;;27.30;99.90;;;;;;5331251;27;20057;-72
2023/06/23 08:52:21;;;;;;;9.73;8.27;;;27.40;99.90;;;;;;5331143;27;20076;-71
2023/06/23 08:54:52;;;;;;;11.00;9.45;;;27.40;99.90;;;;;;5331230;27;20564;-71
2023/06/23 08:57:23;;;;;;;10.20;9.25;;;27.50;99.90;;;;;;5331074;27;20630;-71
2023/06/23 08:59:55;;;;;;;11.18;9.93;;;27.50;99.90;;;;;;5331134;27;20018;-71
2023/06/23 09:02:26;;;;;;;11.23;10.23;;;27.40;99.90;;;;;;5331318;27;20468;-71
2023/06/23 09:04:57;;;;;;;14.52;10.13;;;27.60;99.90;;;;;;5331355;27;20023;-71
2023/06/23 09:07:28;;;;;;;10.52;9.52;;;27.50;99.90;;;;;;5330748;27;20051;-71
2023/06/23 09:09:59;;;;;;;10.95;9.93;;;27.80;99.90;;;;;;5331006;27;20109;-71
2023/06/23 09:12:30;;;;;;;12.77;11.70;;;27.80;99.90;;;;;;5331178;27;20110;-71
2023/06/23 09:15:02;;;;;;;13.85;12.75;;;27.60;99.90;;;;;;5330924;27;20023;-71
2023/06/23 09:17:33;;;;;;;14.70;13.30;;;27.70;99.90;;;;;;5330937;27;20469;-71
2023/06/23 09:20:05;;;;;;;14.57;13.23;;;27.90;99.90;;;;;;5330937;27;20477;-71
2023/06/23 09:22:38;;;;;;;15.45;14.27;;;27.80;99.90;;;;;;5331281;27;20023;-71
2023/06/23 09:25:08;;;;;;;16.92;15.60;;;27.90;99.90;;;;;;5331187;27;20095;-71
2023/06/23 09:27:42;;;;;;;18.95;17.40;;;27.40;99.90;;;;;;5330820;27;20742;-71
2023/06/23 09:30:13;;;;;;;18.77;17.27;;;27.90;99.90;;;;;;5312217;27;20347;-71
2023/06/23 09:32:44;;;;;;;19.05;17.25;;;27.90;99.90;;;;;;5330819;27;20079;-71
2023/06/23 09:35:18;;;;;;;20.23;18.58;;;28.10;99.90;;;;;;5330745;27;20105;-71
2023/06/23 09:37:49;;;;;;;19.75;18.40;;;28.20;99.90;;;;;;5330691;27;20521;-71
2023/06/23 09:40:27;;;;;;;19.75;17.80;;;28.10;99.90;;;;;;5330694;27;20075;-71
2023/06/23 09:42:59;;;;;;;21.30;19.60;;;28.20;99.90;;;;;;5330724;27;20022;-71
2023/06/23 09:45:33;;;;;;;18.65;16.65;;;28.10;99.90;;;;;;5334767;27;20018;-71
2023/06/23 09:48:14;;;;;;;20.35;18.98;;;28.20;99.90;;;;;;5316064;27;20515;-71
2023/06/23 09:50:58;;;;;;;19.63;18.15;;;28.20;99.90;;;;;;5334620;27;20023;-71
2023/06/23 09:53:40;;;;;;;24.17;22.27;;;28.30;99.90;;;;;;5334501;27;20023;-71
2023/06/23 09:56:19;;;;;;;20.88;19.23;;;28.30;99.90;;;;;;5334432;27;20022;-71
2023/06/23 09:58:50;;;;;;;20.63;19.13;;;28.30;99.90;;;;;;5334152;27;20022;-71
2023/06/23 10:01:21;;;;;;;21.88;20.23;;;28.40;99.90;;;;;;5334309;27;20223;-71
2023/06/23 10:03:53;;;;;;;21.83;20.23;;;28.00;99.90;;;;;;5334412;27;20566;-71
2023/06/23 10:06:26;;;;;;;22.40;20.30;;;28.30;99.90;;;;;;5315490;27;20164;-72
2023/06/23 10:08:58;;;;;;;23.85;22.15;;;28.30;99.90;;;;;;5334190;27;20037;-71
2023/06/23 10:11:40;;;;;;;19.20;17.75;;;28.10;99.90;;;;;;5334283;27;20026;-72
2023/06/23 10:14:12;;;;;;;19.67;18.05;;;28.30;99.90;;;;;;5334194;27;20034;-71
2023/06/23 10:16:46;;;;;;;19.98;18.38;;;28.30;99.90;;;;;;5333892;27;20127;-71
2023/06/23 10:19:17;;;;;;;15.63;14.20;;;28.40;99.90;;;;;;5333814;27;20019;-71
2023/06/23 10:21:48;;;;;;;14.68;13.23;;;28.30;99.90;;;;;;5333996;27;20026;-71
2023/06/23 10:24:19;;;;;;;18.08;16.52;;;28.40;99.90;;;;;;5334137;27;20027;-72
2023/06/23 10:26:53;;;;;;;15.77;12.57;;;28.50;99.90;;;;;;5333966;27;20094;-71
2023/06/23 10:29:24;;;;;;;12.15;11.13;;;28.60;99.90;;;;;;5333811;27;20164;-71
2023/06/23 10:31:57;;;;;;;12.07;11.05;;;28.50;99.90;;;;;;5333684;27;20106;-72
2023/06/23 10:34:29;;;;;;;12.23;10.82;;;28.50;99.90;;;;;;5333726;27;20544;-71
2023/06/23 11:04:32;;;;;;;9.70;8.25;;;28.50;99.90;;;;;;5307784;27;20718;-69
2023/06/23 11:07:05;;;;;;;9.55;8.65;;;28.90;99.90;;;;;;5307266;28;20023;-69
2023/06/23 11:09:54;;;;;;;11.27;8.93;;;29.10;99.90;;;;;;5306978;28;20531;-71
2023/06/23 11:12:30;;;;;;;10.70;9.43;;;28.90;99.90;;;;;;5306673;27;20038;-72
2023/06/23 11:15:13;;;;;;;11.40;10.23;;;28.80;99.90;;;;;;5306629;27;20062;-72
2023/06/23 11:18:06;;;;;;;12.23;9.77;;;29.00;99.90;;;;;;5306790;27;20450;-72
2023/06/23 11:20:41;;;;;;;13.80;9.35;;;29.10;99.90;;;;;;5306627;27;20019;-72
2023/06/23 11:23:13;;;;;;;9.30;8.40;;;29.20;99.90;;;;;;5306410;28;20016;-72
2023/06/23 11:25:49;;;;;;;10.65;9.15;;;29.10;99.90;;;;;;5306442;28;20135;-72
2023/06/23 11:28:39;;;;;;;10.73;9.55;;;29.20;99.90;;;;;;5306361;27;20102;-72
2023/06/23 11:31:17;;;;;;;10.68;9.15;;;29.20;99.90;;;;;;5306251;28;20027;-72
2023/06/23 11:34:02;;;;;;;10.32;8.93;;;29.20;99.90;;;;;;5305936;27;20035;-72
2023/06/23 11:36:33;;;;;;;9.35;8.55;;;29.20;99.90;;;;;;5306400;28;20040;-71
2023/06/23 11:39:07;;;;;;;10.50;9.45;;;29.00;99.90;;;;;;5306145;28;20385;-72
2023/06/23 11:41:38;;;;;;;12.48;9.77;;;29.30;99.90;;;;;;5306109;27;20400;-72
2023/06/23 11:44:11;;;;;;;10.13;8.75;;;29.30;99.90;;;;;;5306068;28;20080;-72
2023/06/23 11:46:42;;;;;;;11.25;9.45;;;29.20;99.90;;;;;;5306088;27;20581;-72
2023/06/23 11:49:13;;;;;;;10.43;9.43;;;29.20;99.90;;;;;;5305955;28;20077;-72
2023/06/23 11:51:44;;;;;;;11.63;9.10;;;29.20;99.90;;;;;;5305723;28;20031;-72
2023/06/23 11:54:16;;;;;;;9.57;8.70;;;29.20;99.90;;;;;;5305716;28;20122;-72
2023/06/23 11:56:47;;;;;;;10.23;9.35;;;29.10;99.90;;;;;;5305712;28;20051;-72
2023/06/23 11:59:18;;;;;;;11.80;9.60;;;29.40;99.90;;;;;;5305684;28;20058;-72
2023/06/23 12:01:51;;;;;;;10.30;9.00;;;29.20;99.90;;;;;;5305564;28;20573;-72
2023/06/23 12:04:24;;;;;;;10.52;8.32;;;29.20;99.90;;;;;;5297081;28;20517;-72
2023/06/23 12:06:57;;;;;;;10.32;9.32;;;29.50;99.90;;;;;;5291651;28;20027;-72
2023/06/23 12:09:29;;;;;;;10.77;9.75;;;29.50;99.90;;;;;;5291240;28;20030;-72
2023/06/23 12:12:00;;;;;;;10.82;9.68;;;29.50;99.90;;;;;;5291127;28;20032;-72
2023/06/23 12:14:36;;;;;;;15.30;9.02;;;29.10;99.90;;;;;;5291278;28;20093;-72
2023/06/23 12:17:08;;;;;;;9.93;9.00;;;29.20;99.90;;;;;;5291340;28;20019;-72
2023/06/23 12:19:41;;;;;;;11.73;9.52;;;29.40;99.90;;;;;;5291319;28;20043;-72
2023/06/23 12:22:16;;;;;;;12.88;9.75;;;29.00;99.90;;;;;;5291165;28;20424;-72
2023/06/23 12:24:49;;;;;;;11.85;8.75;;;29.30;99.90;;;;;;5290953;28;20149;-72
2023/06/23 12:27:19;;;;;;;12.98;9.18;;;29.30;99.90;;;;;;5291068;28;20020;-72
2023/06/23 12:29:50;;;;;;;10.45;9.45;;;29.20;99.90;;;;;;5291011;28;20016;-72
2023/06/23 12:32:29;;;;;;;11.98;8.93;;;29.20;99.90;;;;;;5290698;28;20043;-72
2023/06/23 12:34:59;;;;;;;10.65;9.15;;;28.90;99.90;;;;;;5290783;28;20027;-72
2023/06/23 12:37:44;;;;;;;12.05;8.88;;;29.20;99.90;;;;;;5290804;28;20020;-72
2023/06/23 12:40:31;;;;;;;10.55;9.68;;;29.30;99.90;;;;;;5290835;28;20023;-72
2023/06/23 12:43:04;;;;;;;20.65;9.30;;;29.30;99.90;;;;;;5290605;28;20028;-72
2023/06/23 12:45:38;;;;;;;13.15;9.57;;;29.40;99.90;;;;;;5290664;28;20106;-72
2023/06/23 12:48:09;;;;;;;11.73;9.13;;;29.20;99.90;;;;;;5290567;28;20024;-72
2023/06/23 12:50:43;;;;;;;10.32;9.10;;;29.30;99.90;;;;;;5290367;28;20031;-72
2023/06/23 12:53:14;;;;;;;10.25;9.10;;;29.40;99.90;;;;;;5290408;28;20442;-72
2023/06/23 12:55:45;;;;;;;12.60;9.13;;;29.30;99.90;;;;;;5290328;28;20031;-72
2023/06/23 12:58:16;;;;;;;10.13;8.95;;;29.20;99.90;;;;;;5290374;28;20020;-72
2023/06/23 13:00:47;;;;;;;9.82;8.82;;;28.90;99.90;;;;;;5290439;28;20659;-72
2023/06/23 13:03:17;;;;;;;10.88;8.50;;;29.20;99.90;;;;;;5271822;28;20184;-72
2023/06/23 13:05:49;;;;;;;9.90;8.23;;;29.40;99.90;;;;;;5290510;28;20052;-72
2023/06/23 13:08:19;;;;;;;12.68;10.65;;;29.20;99.90;;;;;;5290623;28;20047;-71
2023/06/23 13:10:50;;;;;;;10.90;9.80;;;28.20;99.90;;;;;;5290271;28;20028;-71
2023/06/23 13:13:21;;;;;;;14.90;9.48;;;28.90;99.90;;;;;;5289988;28;20537;-72
2023/06/23 13:15:52;;;;;;;10.30;9.40;;;29.00;99.90;;;;;;5288957;28;20410;-72
2023/06/23 13:18:22;;;;;;;10.80;9.70;;;29.10;99.90;;;;;;5290046;28;20031;-72
2023/06/23 13:20:53;;;;;;;11.77;8.98;;;29.10;99.90;;;;;;5289975;28;20045;-72
2023/06/23 13:25:57;;;;;;;14.40;8.07;;;29.20;99.90;;;;;;5205366;28;20054;-71
2023/06/23 13:28:28;;;;;;;10.15;9.07;;;29.20;99.90;;;;;;5206610;28;20469;-72
2023/06/23 13:30:59;;;;;;;10.32;9.13;;;28.90;99.90;;;;;;5206532;28;20029;-73
2023/06/23 13:33:30;;;;;;;9.50;8.63;;;28.90;99.90;;;;;;5206711;28;20072;-73
2023/06/23 13:36:00;;;;;;;10.75;9.65;;;29.00;99.90;;;;;;5206488;28;20093;-72
2023/06/23 13:38:31;;;;;;;10.70;9.63;;;28.80;99.90;;;;;;5206605;28;20018;-74
2023/06/23 13:41:02;;;;;;;12.13;9.80;;;29.00;99.90;;;;;;5206600;28;20032;-73
2023/06/23 13:56:50;;;;;;;10.10;9.05;;;29.00;99.90;;;;;;5307134;27;20453;-71
2023/06/23 13:59:21;;;;;;;10.23;9.30;;;28.90;99.90;;;;;;5306801;28;20020;-71
2023/06/23 14:01:51;;;;;;;15.30;10.23;;;28.90;99.90;;;;;;5306798;28;20462;-71
2023/06/23 14:04:22;;;;;;;10.75;9.85;;;28.40;99.90;;;;;;5288351;28;20028;-71
2023/06/23 14:06:53;;;;;;;10.98;9.90;;;28.60;99.90;;;;;;5306764;28;20041;-71
2023/06/23 14:09:24;;;;;;;10.57;9.73;;;28.50;99.90;;;;;;5306696;28;20023;-71
2023/06/23 14:11:55;;;;;;;11.40;10.50;;;28.50;99.90;;;;;;5306578;28;20027;-71
2023/06/23 14:14:26;;;;;;;12.68;11.63;;;28.60;99.90;;;;;;5306523;28;20100;-71
2023/06/23 14:16:57;;;;;;;15.10;13.73;;;28.40;99.90;;;;;;5306429;28;20028;-71
2023/06/23 14:19:27;;;;;;;13.10;11.77;;;28.60;99.90;;;;;;5306598;28;20023;-71
2023/06/23 14:21:58;;;;;;;14.05;12.82;;;28.40;99.90;;;;;;5306324;28;20092;-71
2023/06/23 14:24:30;;;;;;;12.82;11.82;;;28.60;99.90;;;;;;5306214;28;20488;-72